Time;durP1;ratioP1;P1;durP2;ratioP2;P2;SDS_P1;SDS_P2;PMS_P1;PMS_P2;Temp;Humidity;BMP_temperature;BMP_pressure;BME280_temperature;BME280_humidity;BME280_pressure;Samples;Min_cycle;Max_cycle;Signal;HPM_P1;HPM_P2
2021/12/31 00:00:33;;;;;;;;;9.25;8.00;;;;;;;;5081729;27;45319;-74
2021/12/31 00:02:58;;;;;;;;;6.00;6.00;;;;;;;;5078088;28;45376;-74
2021/12/31 00:05:23;;;;;;;;;9.50;9.50;;;;;;;;5079552;27;45591;-74
2021/12/31 00:07:48;;;;;;;;;8.00;8.00;;;;;;;;5078016;27;45375;-74
2021/12/31 00:10:14;;;;;;;;;10.75;9.25;;;;;;;;5078115;27;45457;-74
2021/12/31 00:12:43;;;;;;;;;7.25;7.00;;;;;;;;5060244;27;45470;-73
2021/12/31 00:15:09;;;;;;;;;8.00;8.00;;;;;;;;5077373;27;47063;-73
2021/12/31 00:17:34;;;;;;;;;8.00;8.00;;;;;;;;5078079;27;45323;-74
2021/12/31 00:20:11;;;;;;;;;8.75;7.75;;;;;;;;5080608;27;45157;-72
2021/12/31 00:25:07;;;;;;;;;10.00;9.75;;;;;;;;5091975;27;45988;-74
2021/12/31 00:27:32;;;;;;;;;10.50;10.00;;;;;;;;5088602;27;45355;-74
2021/12/31 00:29:58;;;;;;;;;9.00;9.00;;;;;;;;5078462;28;45323;-73
2021/12/31 00:32:23;;;;;;;;;9.25;9.25;;;;;;;;5078359;27;45636;-74
2021/12/31 00:34:48;;;;;;;;;9.50;9.50;;;;;;;;5077393;27;46501;-74
2021/12/31 00:37:24;;;;;;;;;11.50;9.75;;;;;;;;5077914;27;45522;-74
2021/12/31 00:39:49;;;;;;;;;11.00;9.75;;;;;;;;5079626;27;45303;-73
2021/12/31 00:42:14;;;;;;;;;8.00;7.25;;;;;;;;5077971;27;45404;-74
2021/12/31 00:44:39;;;;;;;;;11.00;10.00;;;;;;;;5077046;27;45477;-73
2021/12/31 00:47:05;;;;;;;;;10.00;9.75;;;;;;;;5077270;27;45385;-73
2021/12/31 00:49:30;;;;;;;;;9.00;9.00;;;;;;;;5077519;27;45431;-74
2021/12/31 00:51:55;;;;;;;;;10.50;9.00;;;;;;;;5078105;27;45304;-74
2021/12/31 00:54:20;;;;;;;;;7.25;6.25;;;;;;;;5078091;27;46037;-73
2021/12/31 00:56:45;;;;;;;;;11.25;9.75;;;;;;;;5076791;28;45418;-73
2021/12/31 00:59:11;;;;;;;;;10.00;8.00;;;;;;;;5077340;27;45396;-73
2021/12/31 01:01:37;;;;;;;;;11.25;10.25;;;;;;;;5077646;27;45504;-73
2021/12/31 01:04:02;;;;;;;;;6.50;6.50;;;;;;;;5058913;28;45484;-73
2021/12/31 01:06:28;;;;;;;;;8.25;7.25;;;;;;;;5077709;27;45477;-74
2021/12/31 01:08:53;;;;;;;;;7.00;7.00;;;;;;;;5076994;28;45217;-74
2021/12/31 01:11:18;;;;;;;;;8.50;8.00;;;;;;;;5077132;27;45475;-74
2021/12/31 01:14:04;;;;;;;;;7.75;7.75;;;;;;;;5077391;27;47087;-73
2021/12/31 01:16:39;;;;;;;;;8.00;8.00;;;;;;;;5077268;27;45517;-73
2021/12/31 01:21:33;;;;;;;;;11.25;9.50;;;;;;;;5076002;27;45314;-73
2021/12/31 01:24:00;;;;;;;;;12.00;9.25;;;;;;;;5072186;28;46866;-74
2021/12/31 01:26:25;;;;;;;;;13.00;13.00;;;;;;;;5076712;27;45362;-73
2021/12/31 01:28:50;;;;;;;;;9.00;8.00;;;;;;;;5077146;27;45363;-74
2021/12/31 01:31:16;;;;;;;;;9.25;8.00;;;;;;;;5077165;27;45457;-73
2021/12/31 01:33:41;;;;;;;;;14.00;10.00;;;;;;;;5076573;27;45522;-74
2021/12/31 01:36:06;;;;;;;;;12.25;10.00;;;;;;;;5076178;27;45392;-74
2021/12/31 01:38:31;;;;;;;;;13.00;9.75;;;;;;;;5059152;28;45357;-73
2021/12/31 01:40:57;;;;;;;;;7.50;7.50;;;;;;;;5077189;27;45577;-75
2021/12/31 01:43:22;;;;;;;;;8.00;8.00;;;;;;;;5076523;27;45480;-73
2021/12/31 01:45:54;;;;;;;;;8.50;8.50;;;;;;;;5076947;27;45441;-74
2021/12/31 01:50:49;;;;;;;;;10.25;8.50;;;;;;;;5076068;28;45356;-73
2021/12/31 01:53:14;;;;;;;;;9.75;9.75;;;;;;;;5076305;27;47179;-73
2021/12/31 01:55:40;;;;;;;;;11.25;9.00;;;;;;;;5077211;27;45384;-73
2021/12/31 01:58:07;;;;;;;;;13.25;9.50;;;;;;;;5076400;27;45710;-73
2021/12/31 02:00:33;;;;;;;;;11.25;9.50;;;;;;;;5076256;27;45413;-73
2021/12/31 02:03:00;;;;;;;;;12.50;12.50;;;;;;;;5075727;28;46205;-74
2021/12/31 02:05:25;;;;;;;;;8.75;8.75;;;;;;;;5077683;27;45506;-73
2021/12/31 02:07:50;;;;;;;;;14.75;13.50;;;;;;;;5076245;27;45375;-73
2021/12/31 02:10:15;;;;;;;;;10.00;8.75;;;;;;;;5076193;27;45310;-73
2021/12/31 02:12:42;;;;;;;;;12.25;11.50;;;;;;;;5075865;27;46252;-73
2021/12/31 02:15:08;;;;;;;;;8.00;7.00;;;;;;;;5075314;27;45331;-73
2021/12/31 02:17:33;;;;;;;;;12.00;12.00;;;;;;;;5075945;27;45438;-74
2021/12/31 02:20:05;;;;;;;;;11.00;8.25;;;;;;;;5057879;28;45535;-74
2021/12/31 02:22:31;;;;;;;;;13.25;11.25;;;;;;;;5075958;27;47399;-74
2021/12/31 02:24:57;;;;;;;;;12.25;10.50;;;;;;;;5077312;27;45225;-73
2021/12/31 02:27:23;;;;;;;;;13.00;13.00;;;;;;;;5076238;27;45560;-73
2021/12/31 02:29:48;;;;;;;;;11.50;11.50;;;;;;;;5075083;28;45407;-73
2021/12/31 02:32:13;;;;;;;;;10.50;10.50;;;;;;;;5075566;27;46971;-72
2021/12/31 02:34:38;;;;;;;;;11.75;10.50;;;;;;;;5076213;27;45417;-74
2021/12/31 02:37:04;;;;;;;;;8.75;7.75;;;;;;;;5076335;27;45394;-75
2021/12/31 02:39:29;;;;;;;;;13.50;12.00;;;;;;;;5076196;27;45472;-74
2021/12/31 02:41:54;;;;;;;;;11.00;8.75;;;;;;;;5074749;28;46206;-74
2021/12/31 02:44:19;;;;;;;;;10.75;10.75;;;;;;;;5075302;27;45476;-72
2021/12/31 02:46:45;;;;;;;;;11.50;10.25;;;;;;;;5076095;27;45575;-73
2021/12/31 02:49:10;;;;;;;;;11.50;10.75;;;;;;;;5076243;27;45437;-73
2021/12/31 02:51:35;;;;;;;;;14.50;13.25;;;;;;;;5075872;27;46994;-73
2021/12/31 02:54:05;;;;;;;;;12.00;10.25;;;;;;;;5074893;27;45433;-72
2021/12/31 02:56:31;;;;;;;;;12.00;11.00;;;;;;;;5075716;27;45557;-75
2021/12/31 02:58:56;;;;;;;;;10.00;9.00;;;;;;;;5076893;27;45573;-74
2021/12/31 03:01:21;;;;;;;;;10.50;9.50;;;;;;;;5077376;27;45953;-73
2021/12/31 03:03:48;;;;;;;;;9.50;8.75;;;;;;;;5075840;27;45358;-72
2021/12/31 03:06:13;;;;;;;;;10.50;8.00;;;;;;;;5075876;27;45478;-74
2021/12/31 03:08:44;;;;;;;;;7.50;7.50;;;;;;;;5074896;27;45539;-73
2021/12/31 03:11:10;;;;;;;;;12.50;11.00;;;;;;;;5075305;27;46316;-74
2021/12/31 03:13:36;;;;;;;;;9.50;9.50;;;;;;;;5074814;27;45450;-74
2021/12/31 03:16:01;;;;;;;;;11.00;9.00;;;;;;;;5075500;27;45652;-73
2021/12/31 03:18:27;;;;;;;;;10.75;10.00;;;;;;;;5075809;27;45272;-74
2021/12/31 03:21:09;;;;;;;;;8.50;8.00;;;;;;;;5056508;28;47357;-74
2021/12/31 03:23:34;;;;;;;;;9.75;9.75;;;;;;;;5075471;27;45450;-74
2021/12/31 03:26:00;;;;;;;;;8.00;8.00;;;;;;;;5075228;27;45431;-74
2021/12/31 03:28:26;;;;;;;;;11.75;10.00;;;;;;;;5075387;27;45204;-73
2021/12/31 03:30:51;;;;;;;;;6.75;6.75;;;;;;;;5075412;27;46549;-73
2021/12/31 03:33:18;;;;;;;;;8.75;7.00;;;;;;;;5075210;27;45208;-73
2021/12/31 03:35:43;;;;;;;;;9.00;7.25;;;;;;;;5056520;28;45333;-72
2021/12/31 03:38:08;;;;;;;;;7.00;6.50;;;;;;;;5075435;27;45245;-72
2021/12/31 03:40:33;;;;;;;;;7.75;7.75;;;;;;;;5074532;27;45421;-73
2021/12/31 03:42:59;;;;;;;;;7.75;6.25;;;;;;;;5074771;27;45438;-73
2021/12/31 03:45:24;;;;;;;;;9.00;7.00;;;;;;;;5079175;27;45526;-73
2021/12/31 03:47:50;;;;;;;;;8.50;7.25;;;;;;;;5077850;28;45378;-73
2021/12/31 03:50:15;;;;;;;;;7.00;5.00;;;;;;;;5078388;27;46265;-73
2021/12/31 03:52:40;;;;;;;;;6.00;6.00;;;;;;;;5078757;27;45546;-73
2021/12/31 03:55:10;;;;;;;;;9.00;5.50;;;;;;;;5078956;27;45406;-74
2021/12/31 03:57:36;;;;;;;;;8.25;5.25;;;;;;;;5078397;27;45406;-74
2021/12/31 04:00:04;;;;;;;;;6.75;6.75;;;;;;;;5077207;27;46642;-73
2021/12/31 04:02:29;;;;;;;;;6.75;6.25;;;;;;;;5078250;27;45444;-74
2021/12/31 04:04:54;;;;;;;;;6.25;6.25;;;;;;;;5078752;27;45453;-74
2021/12/31 04:07:19;;;;;;;;;7.00;5.00;;;;;;;;5082406;27;45367;-73
2021/12/31 04:09:45;;;;;;;;;8.00;7.00;;;;;;;;5081401;27;45601;-73
2021/12/31 04:12:10;;;;;;;;;7.75;7.00;;;;;;;;5077340;27;45570;-74
2021/12/31 04:14:35;;;;;;;;;6.50;6.50;;;;;;;;5078269;27;45378;-74
2021/12/31 04:17:00;;;;;;;;;9.50;5.00;;;;;;;;5078291;27;45356;-74
2021/12/31 04:19:25;;;;;;;;;7.00;6.00;;;;;;;;5077925;27;45276;-74
2021/12/31 04:21:51;;;;;;;;;5.25;5.00;;;;;;;;5078336;27;47851;-74
2021/12/31 04:24:29;;;;;;;;;6.50;6.00;;;;;;;;5078584;27;45490;-74
2021/12/31 04:26:55;;;;;;;;;7.75;5.25;;;;;;;;5077071;28;45388;-73
2021/12/31 04:29:20;;;;;;;;;7.00;6.00;;;;;;;;5077596;27;46825;-74
2021/12/31 04:31:45;;;;;;;;;7.00;5.25;;;;;;;;5078065;27;45521;-74
2021/12/31 04:34:11;;;;;;;;;5.00;4.00;;;;;;;;5078276;27;45348;-74
2021/12/31 04:36:36;;;;;;;;;5.75;5.75;;;;;;;;5078461;27;45586;-74
2021/12/31 04:39:01;;;;;;;;;7.00;7.00;;;;;;;;5076978;27;45325;-73
2021/12/31 04:41:26;;;;;;;;;5.75;4.25;;;;;;;;5077445;27;45435;-74
2021/12/31 04:43:52;;;;;;;;;7.50;6.25;;;;;;;;5079691;27;45363;-72
2021/12/31 04:46:17;;;;;;;;;7.00;7.00;;;;;;;;5078162;27;45506;-72
2021/12/31 04:48:42;;;;;;;;;5.25;4.25;;;;;;;;5077891;27;45773;-73
2021/12/31 04:51:07;;;;;;;;;6.50;6.50;;;;;;;;5076923;27;45491;-72
2021/12/31 04:53:33;;;;;;;;;7.25;6.75;;;;;;;;5077961;27;45430;-74
2021/12/31 04:55:59;;;;;;;;;5.25;5.25;;;;;;;;5077185;27;45686;-73
2021/12/31 04:58:24;;;;;;;;;8.25;6.00;;;;;;;;5077481;27;45602;-74
2021/12/31 05:00:49;;;;;;;;;5.00;5.00;;;;;;;;5079183;27;45439;-73
2021/12/31 05:03:14;;;;;;;;;5.25;5.25;;;;;;;;5077915;27;45319;-72
2021/12/31 05:05:40;;;;;;;;;7.50;5.00;;;;;;;;5076546;27;45403;-74
2021/12/31 05:08:05;;;;;;;;;8.00;8.00;;;;;;;;5077424;27;45767;-73
2021/12/31 05:10:32;;;;;;;;;8.00;6.25;;;;;;;;5076869;27;45336;-73
2021/12/31 05:12:58;;;;;;;;;8.50;8.00;;;;;;;;5079344;27;45599;-72
2021/12/31 05:15:34;;;;;;;;;6.25;6.25;;;;;;;;5077158;27;45871;-72
2021/12/31 05:17:59;;;;;;;;;5.50;4.50;;;;;;;;5072317;28;46519;-73
2021/12/31 05:20:25;;;;;;;;;7.25;7.25;;;;;;;;5076828;27;45353;-73
2021/12/31 05:22:50;;;;;;;;;7.50;6.50;;;;;;;;5076630;27;47163;-72
2021/12/31 05:25:16;;;;;;;;;7.00;7.00;;;;;;;;5076474;27;45415;-72
2021/12/31 05:27:42;;;;;;;;;7.00;5.00;;;;;;;;5076919;27;46373;-73
2021/12/31 05:30:07;;;;;;;;;6.50;6.00;;;;;;;;5075838;27;45399;-73
2021/12/31 05:32:32;;;;;;;;;8.75;4.00;;;;;;;;5077107;27;45527;-73
2021/12/31 05:34:58;;;;;;;;;9.75;8.00;;;;;;;;5076804;27;45258;-73
2021/12/31 05:37:24;;;;;;;;;6.75;5.75;;;;;;;;5076882;27;46286;-72
2021/12/31 05:39:49;;;;;;;;;10.00;8.25;;;;;;;;5076276;27;45347;-73
2021/12/31 05:42:15;;;;;;;;;6.50;6.50;;;;;;;;5076691;27;45502;-74
2021/12/31 05:44:40;;;;;;;;;6.50;5.25;;;;;;;;5075611;28;45486;-74
2021/12/31 05:47:05;;;;;;;;;7.75;6.50;;;;;;;;5078172;27;45307;-74
2021/12/31 05:49:30;;;;;;;;;8.00;8.00;;;;;;;;5077236;27;45300;-74
2021/12/31 05:51:56;;;;;;;;;5.75;5.75;;;;;;;;5076524;27;45445;-74
2021/12/31 05:54:21;;;;;;;;;10.00;7.25;;;;;;;;5076157;27;45364;-74
2021/12/31 05:56:46;;;;;;;;;8.00;8.00;;;;;;;;5075756;28;45278;-74
2021/12/31 05:59:12;;;;;;;;;7.75;7.25;;;;;;;;5080804;27;45326;-73
2021/12/31 06:01:37;;;;;;;;;9.25;9.25;;;;;;;;5089408;27;45545;-74
2021/12/31 06:04:02;;;;;;;;;8.75;6.25;;;;;;;;5079512;27;45513;-74
2021/12/31 06:06:27;;;;;;;;;6.75;6.75;;;;;;;;5076032;27;47047;-74
2021/12/31 06:08:52;;;;;;;;;8.00;8.00;;;;;;;;5075027;28;45316;-74
2021/12/31 06:11:18;;;;;;;;;8.00;7.00;;;;;;;;5075957;27;45470;-74
2021/12/31 06:13:44;;;;;;;;;10.50;9.50;;;;;;;;5076307;27;45306;-74
2021/12/31 06:16:10;;;;;;;;;8.50;7.75;;;;;;;;5076069;27;45609;-73
2021/12/31 06:18:36;;;;;;;;;7.50;5.00;;;;;;;;5076167;27;45340;-73
2021/12/31 06:21:01;;;;;;;;;6.00;6.00;;;;;;;;5075377;28;45296;-74
2021/12/31 06:23:26;;;;;;;;;8.00;8.00;;;;;;;;5076639;27;45458;-73
2021/12/31 06:25:51;;;;;;;;;9.25;7.25;;;;;;;;5075783;27;46373;-74
2021/12/31 06:28:17;;;;;;;;;12.00;6.75;;;;;;;;5076079;27;45311;-72
2021/12/31 06:30:42;;;;;;;;;9.00;7.50;;;;;;;;5075894;27;45350;-74
2021/12/31 06:33:07;;;;;;;;;6.00;6.00;;;;;;;;5075489;27;45397;-74
2021/12/31 06:35:32;;;;;;;;;7.00;6.00;;;;;;;;5075987;27;46897;-73
2021/12/31 06:37:58;;;;;;;;;9.00;9.00;;;;;;;;5056908;28;45249;-74
2021/12/31 06:40:24;;;;;;;;;7.75;7.75;;;;;;;;5075435;27;45458;-75
2021/12/31 06:42:50;;;;;;;;;7.50;6.00;;;;;;;;5077505;27;45458;-74
2021/12/31 06:45:15;;;;;;;;;10.50;9.75;;;;;;;;5075965;27;45988;-74
2021/12/31 06:47:40;;;;;;;;;8.00;8.00;;;;;;;;5075038;27;45336;-74
2021/12/31 06:50:05;;;;;;;;;8.25;7.75;;;;;;;;5075573;27;45407;-74
2021/12/31 06:52:35;;;;;;;;;7.75;7.25;;;;;;;;5075326;27;45521;-72
2021/12/31 06:55:00;;;;;;;;;9.75;9.75;;;;;;;;5075568;27;46030;-73
2021/12/31 06:57:26;;;;;;;;;6.00;6.00;;;;;;;;5075264;27;45285;-73
2021/12/31 06:59:51;;;;;;;;;10.00;7.00;;;;;;;;5056355;28;45451;-73
2021/12/31 07:02:16;;;;;;;;;8.50;8.50;;;;;;;;5075253;27;45476;-73
2021/12/31 07:04:41;;;;;;;;;9.25;9.00;;;;;;;;5075559;27;45317;-73
2021/12/31 07:07:06;;;;;;;;;6.75;6.75;;;;;;;;5075284;27;45413;-73
2021/12/31 07:09:32;;;;;;;;;7.75;7.75;;;;;;;;5075716;27;45459;-73
2021/12/31 07:11:57;;;;;;;;;9.00;9.00;;;;;;;;5074358;28;45508;-73
2021/12/31 07:14:22;;;;;;;;;11.50;8.50;;;;;;;;5074793;27;45416;-74
2021/12/31 07:16:47;;;;;;;;;9.25;9.00;;;;;;;;5074837;27;45263;-72
2021/12/31 07:19:13;;;;;;;;;8.00;8.00;;;;;;;;5078867;27;45415;-73
2021/12/31 07:21:38;;;;;;;;;8.00;8.00;;;;;;;;5079919;27;45516;-74
2021/12/31 07:24:03;;;;;;;;;9.50;8.00;;;;;;;;5077595;27;47240;-74
2021/12/31 07:26:28;;;;;;;;;7.00;7.00;;;;;;;;5078655;27;45420;-74
2021/12/31 07:28:53;;;;;;;;;9.00;9.00;;;;;;;;5078005;27;45463;-73
2021/12/31 07:31:19;;;;;;;;;8.50;7.50;;;;;;;;5061444;28;45482;-73
2021/12/31 07:33:44;;;;;;;;;8.75;8.50;;;;;;;;5078285;27;47114;-72
2021/12/31 07:36:09;;;;;;;;;7.00;7.00;;;;;;;;5077225;27;45386;-74
2021/12/31 07:38:38;;;;;;;;;11.50;10.75;;;;;;;;5060854;28;45418;-75
2021/12/31 07:41:03;;;;;;;;;8.00;7.00;;;;;;;;5078304;27;45502;-73
2021/12/31 07:43:29;;;;;;;;;9.75;9.75;;;;;;;;5078274;27;46934;-74
2021/12/31 07:45:54;;;;;;;;;8.25;6.50;;;;;;;;5078964;27;45862;-74
2021/12/31 07:48:20;;;;;;;;;9.75;8.50;;;;;;;;5078648;27;45463;-75
2021/12/31 07:50:45;;;;;;;;;9.75;8.75;;;;;;;;5081882;28;45412;-77
2021/12/31 07:53:10;;;;;;;;;8.00;8.00;;;;;;;;5087240;27;45576;-76
2021/12/31 07:55:36;;;;;;;;;10.25;8.25;;;;;;;;5087441;27;45497;-77
2021/12/31 07:58:01;;;;;;;;;9.75;9.50;;;;;;;;5086197;27;45209;-74
2021/12/31 08:00:27;;;;;;;;;14.25;11.50;;;;;;;;5083479;27;45217;-75
2021/12/31 08:02:55;;;;;;;;;9.00;8.50;;;;;;;;5079157;27;46271;-74
2021/12/31 08:05:21;;;;;;;;;10.50;8.00;;;;;;;;5080858;27;45548;-75
2021/12/31 08:07:46;;;;;;;;;6.25;6.00;;;;;;;;5078448;27;45369;-75
2021/12/31 08:10:11;;;;;;;;;10.50;10.00;;;;;;;;5078290;27;45447;-74
2021/12/31 08:12:37;;;;;;;;;8.50;8.50;;;;;;;;5079569;27;47095;-77
2021/12/31 08:15:03;;;;;;;;;11.00;9.25;;;;;;;;5078146;27;45356;-75
2021/12/31 08:17:28;;;;;;;;;6.25;6.25;;;;;;;;5078166;27;45499;-75
2021/12/31 08:19:53;;;;;;;;;8.50;8.50;;;;;;;;5078241;27;45427;-74
2021/12/31 08:22:21;;;;;;;;;10.00;8.75;;;;;;;;5078198;27;47402;-75
2021/12/31 08:24:46;;;;;;;;;12.50;9.50;;;;;;;;5080868;27;45410;-74
2021/12/31 08:27:11;;;;;;;;;11.00;10.25;;;;;;;;5077677;27;45414;-74
2021/12/31 08:29:37;;;;;;;;;12.75;8.50;;;;;;;;5074996;27;45365;-74
2021/12/31 08:32:02;;;;;;;;;12.00;10.75;;;;;;;;5061196;28;46480;-74
2021/12/31 08:34:27;;;;;;;;;10.50;10.50;;;;;;;;5077658;27;45447;-74
2021/12/31 08:36:52;;;;;;;;;10.00;9.00;;;;;;;;5059118;28;45483;-73
2021/12/31 08:39:17;;;;;;;;;10.00;10.00;;;;;;;;5077889;27;45456;-71
2021/12/31 08:41:43;;;;;;;;;12.00;10.25;;;;;;;;5073411;28;45490;-73
2021/12/31 08:44:08;;;;;;;;;8.75;8.75;;;;;;;;5070562;28;45509;-74
2021/12/31 08:46:34;;;;;;;;;13.75;12.50;;;;;;;;5071010;27;45311;-74
2021/12/31 08:48:59;;;;;;;;;10.50;9.25;;;;;;;;5073204;27;45525;-73
2021/12/31 08:51:25;;;;;;;;;9.75;9.25;;;;;;;;5069565;27;45480;-74
2021/12/31 08:53:51;;;;;;;;;8.50;8.50;;;;;;;;5076038;28;45371;-73
2021/12/31 08:56:16;;;;;;;;;10.00;8.75;;;;;;;;5068745;27;49144;-72
2021/12/31 08:58:41;;;;;;;;;12.50;10.75;;;;;;;;5071823;27;45534;-72
2021/12/31 09:01:07;;;;;;;;;10.00;10.00;;;;;;;;5072690;27;45434;-74
2021/12/31 09:03:32;;;;;;;;;8.50;7.50;;;;;;;;5069076;28;45515;-75
2021/12/31 09:05:57;;;;;;;;;10.00;7.75;;;;;;;;5059128;28;45454;-73
2021/12/31 09:08:23;;;;;;;;;9.50;8.50;;;;;;;;5071083;27;45473;-73
2021/12/31 09:10:48;;;;;;;;;9.00;9.00;;;;;;;;5072680;27;46385;-74
2021/12/31 09:13:14;;;;;;;;;10.25;9.25;;;;;;;;5062672;28;45596;-75
2021/12/31 09:15:39;;;;;;;;;12.25;10.50;;;;;;;;5068718;28;45556;-73
2021/12/31 09:18:04;;;;;;;;;10.25;8.75;;;;;;;;5066999;27;45584;-76
2021/12/31 09:20:30;;;;;;;;;12.25;10.50;;;;;;;;5069449;27;45304;-74
2021/12/31 09:22:55;;;;;;;;;7.50;6.50;;;;;;;;5070181;27;45349;-74
2021/12/31 09:25:20;;;;;;;;;10.75;10.25;;;;;;;;5074889;27;45227;-73
2021/12/31 09:27:46;;;;;;;;;12.00;11.25;;;;;;;;5075466;27;45544;-73
2021/12/31 09:30:12;;;;;;;;;11.75;11.50;;;;;;;;5073865;27;46006;-74
2021/12/31 09:32:37;;;;;;;;;12.00;12.00;;;;;;;;5074594;27;45497;-74
2021/12/31 09:35:02;;;;;;;;;12.75;10.25;;;;;;;;5068035;28;45398;-73
2021/12/31 09:37:29;;;;;;;;;14.50;13.25;;;;;;;;5068109;28;45464;-74
2021/12/31 09:39:54;;;;;;;;;15.00;13.25;;;;;;;;5069166;28;45490;-74
2021/12/31 09:42:20;;;;;;;;;12.75;12.25;;;;;;;;5071827;27;45461;-75
2021/12/31 09:44:48;;;;;;;;;9.25;8.00;;;;;;;;5066791;27;45511;-74
2021/12/31 09:47:15;;;;;;;;;11.25;10.00;;;;;;;;5067356;27;45426;-75
2021/12/31 09:49:40;;;;;;;;;13.00;8.00;;;;;;;;5068968;28;47310;-73
2021/12/31 09:52:10;;;;;;;;;10.50;9.00;;;;;;;;5069650;27;45483;-74
2021/12/31 09:54:35;;;;;;;;;9.50;8.50;;;;;;;;5076167;27;45469;-74
2021/12/31 09:57:04;;;;;;;;;7.50;6.75;;;;;;;;5074159;28;45461;-75
2021/12/31 09:59:29;;;;;;;;;8.50;7.50;;;;;;;;5068451;28;45281;-76
2021/12/31 10:01:56;;;;;;;;;8.00;5.50;;;;;;;;5067818;28;45348;-73
2021/12/31 10:04:22;;;;;;;;;7.25;5.50;;;;;;;;5062934;28;45294;-75
2021/12/31 10:07:06;;;;;;;;;6.75;5.50;;;;;;;;5062368;28;45232;-73
2021/12/31 10:09:31;;;;;;;;;5.00;5.00;;;;;;;;5068198;27;47247;-74
2021/12/31 10:11:57;;;;;;;;;5.50;4.75;;;;;;;;5073310;28;45217;-73
2021/12/31 10:14:32;;;;;;;;;6.00;4.25;;;;;;;;5074099;27;45439;-74
2021/12/31 10:16:58;;;;;;;;;6.00;5.25;;;;;;;;5067020;28;45271;-74
2021/12/31 10:19:23;;;;;;;;;11.50;10.00;;;;;;;;5071069;27;47090;-75
2021/12/31 10:21:54;;;;;;;;;9.25;8.00;;;;;;;;5071888;27;45505;-75
2021/12/31 10:24:32;;;;;;;;;9.50;9.00;;;;;;;;5074682;27;45367;-75
2021/12/31 10:27:00;;;;;;;;;7.25;6.00;;;;;;;;5070448;28;45379;-75
2021/12/31 10:29:26;;;;;;;;;6.00;6.00;;;;;;;;5075408;27;47540;-77
2021/12/31 10:31:52;;;;;;;;;8.00;7.00;;;;;;;;5075484;27;45440;-76
2021/12/31 10:34:24;;;;;;;;;9.75;7.50;;;;;;;;5076066;27;45551;-74
2021/12/31 10:36:50;;;;;;;;;9.00;7.00;;;;;;;;5077175;27;45489;-77
2021/12/31 10:39:19;;;;;;;;;3.75;3.25;;;;;;;;5074977;27;47227;-76
2021/12/31 10:41:48;;;;;;;;;8.75;7.25;;;;;;;;5072555;28;45455;-77
2021/12/31 10:44:14;;;;;;;;;7.75;7.75;;;;;;;;5074598;27;45812;-74
2021/12/31 10:46:40;;;;;;;;;9.50;8.50;;;;;;;;5074642;27;45518;-74
2021/12/31 10:49:10;;;;;;;;;9.00;6.00;;;;;;;;5074780;27;47574;-73
2021/12/31 10:51:44;;;;;;;;;8.00;6.67;;;;;;;;5074580;27;45347;-74
2021/12/31 10:54:16;;;;;;;;;9.33;8.00;;;;;;;;5077263;27;45561;-74
2021/12/31 10:56:41;;;;;;;;;9.00;9.00;;;;;;;;5077525;27;45300;-76
2021/12/31 10:59:07;;;;;;;;;7.00;7.00;;;;;;;;5077476;27;45429;-75
2021/12/31 11:01:32;;;;;;;;;8.00;7.00;;;;;;;;5078267;27;45470;-75
2021/12/31 11:03:57;;;;;;;;;6.00;5.00;;;;;;;;5078743;27;45350;-75
2021/12/31 11:06:23;;;;;;;;;5.00;5.00;;;;;;;;5078294;27;45343;-73
2021/12/31 11:08:49;;;;;;;;;5.00;5.00;;;;;;;;5076907;28;45356;-73
2021/12/31 11:11:15;;;;;;;;;6.00;6.00;;;;;;;;5077953;27;45559;-74
2021/12/31 11:13:41;;;;;;;;;6.33;6.33;;;;;;;;5077451;27;45304;-73
2021/12/31 11:16:06;;;;;;;;;6.67;4.67;;;;;;;;5078144;27;45604;-75
2021/12/31 11:18:31;;;;;;;;;7.33;6.00;;;;;;;;5077874;27;45315;-76
2021/12/31 11:20:58;;;;;;;;;5.00;5.00;;;;;;;;5076639;28;45525;-77
2021/12/31 11:23:28;;;;;;;;;6.00;6.00;;;;;;;;5077894;27;45436;-77
2021/12/31 11:26:01;;;;;;;;;9.67;5.33;;;;;;;;5079211;27;45484;-81
2021/12/31 11:28:27;;;;;;;;;5.00;5.00;;;;;;;;5077166;27;47190;-73
2021/12/31 11:30:53;;;;;;;;;4.67;4.67;;;;;;;;5077193;27;45505;-74
2021/12/31 11:33:20;;;;;;;;;4.00;4.00;;;;;;;;5077725;27;45569;-77
2021/12/31 11:36:05;;;;;;;;;8.00;8.00;;;;;;;;5076674;28;45393;-77
2021/12/31 11:38:30;;;;;;;;;7.00;6.33;;;;;;;;5078652;27;47106;-77
2021/12/31 11:41:04;;;;;;;;;5.67;4.67;;;;;;;;5076537;27;45225;-75
2021/12/31 11:43:30;;;;;;;;;5.33;5.33;;;;;;;;5077633;27;45399;-76
2021/12/31 11:46:10;;;;;;;;;5.00;5.00;;;;;;;;5077240;27;45326;-80
2021/12/31 11:48:48;;;;;;;;;8.00;7.33;;;;;;;;5061425;27;46656;-77
2021/12/31 11:51:16;;;;;;;;;4.67;4.67;;;;;;;;5076021;27;45428;-78
2021/12/31 11:54:00;;;;;;;;;5.67;5.67;;;;;;;;5076133;27;45390;-77
2021/12/31 11:56:38;;;;;;;;;4.33;4.33;;;;;;;;5076577;27;45415;-79
2021/12/31 11:59:09;;;;;;;;;3.67;3.67;;;;;;;;5076693;27;46151;-78
2021/12/31 12:01:35;;;;;;;;;6.33;6.33;;;;;;;;5076610;27;45636;-78
2021/12/31 12:04:18;;;;;;;;;4.00;4.00;;;;;;;;5069118;28;45584;-76
2021/12/31 12:06:52;;;;;;;;;5.00;5.00;;;;;;;;5077294;27;45514;-77
2021/12/31 12:09:18;;;;;;;;;4.00;4.00;;;;;;;;5075629;27;45540;-77
2021/12/31 12:12:02;;;;;;;;;4.33;4.33;;;;;;;;5077162;27;45437;-76
2021/12/31 12:14:37;;;;;;;;;6.33;6.33;;;;;;;;5077955;27;44896;-77
2021/12/31 12:17:03;;;;;;;;;4.33;4.33;;;;;;;;5069684;27;45846;-75
2021/12/31 12:19:46;;;;;;;;;6.33;4.00;;;;;;;;5079658;27;46401;-77
2021/12/31 12:22:33;;;;;;;;;4.33;4.00;;;;;;;;5078810;27;45343;-77
2021/12/31 12:25:11;;;;;;;;;5.00;5.00;;;;;;;;5078454;27;47500;-77
2021/12/31 12:27:37;;;;;;;;;7.50;6.50;;;;;;;;5065174;27;45293;-76
2021/12/31 12:30:04;;;;;;;;;5.33;5.33;;;;;;;;5076993;28;46168;-78
2021/12/31 12:32:34;;;;;;;;;6.00;6.00;;;;;;;;5079737;27;45501;-78
2021/12/31 12:35:10;;;;;;;;;7.67;4.33;;;;;;;;5077905;27;45154;-75
2021/12/31 12:37:35;;;;;;;;;5.67;5.67;;;;;;;;5074788;27;45475;-77
2021/12/31 12:40:03;;;;;;;;;7.00;6.00;;;;;;;;5055512;28;46916;-75
2021/12/31 12:42:28;;;;;;;;;7.33;7.33;;;;;;;;5078815;27;45352;-76
2021/12/31 12:44:57;;;;;;;;;7.00;7.00;;;;;;;;5077507;27;46120;-77
2021/12/31 12:47:23;;;;;;;;;7.33;7.33;;;;;;;;5077897;27;45224;-77
2021/12/31 12:49:55;;;;;;;;;12.67;11.00;;;;;;;;5078181;27;45424;-78
2021/12/31 12:52:20;;;;;;;;;6.00;6.00;;;;;;;;5076893;27;45332;-77
2021/12/31 12:54:45;;;;;;;;;10.00;8.00;;;;;;;;5071047;28;45406;-77
2021/12/31 12:57:11;;;;;;;;;7.00;7.00;;;;;;;;5071125;27;45349;-79
2021/12/31 12:59:37;;;;;;;;;18.67;15.67;;;;;;;;5066407;27;46468;-78
2021/12/31 13:02:02;;;;;;;;;9.33;9.33;;;;;;;;5073814;27;45422;-79
2021/12/31 13:04:29;;;;;;;;;5.67;5.00;;;;;;;;5071050;28;45317;-77
2021/12/31 13:06:55;;;;;;;;;4.67;4.67;;;;;;;;5070005;28;45458;-81
2021/12/31 13:09:23;;;;;;;;;6.00;6.00;;;;;;;;5071536;27;46230;-79
2021/12/31 13:11:51;;;;;;;;;10.00;8.00;;;;;;;;5076255;27;45402;-81
2021/12/31 13:14:21;;;;;;;;;4.33;3.00;;;;;;;;5075021;27;45323;-77
2021/12/31 13:16:50;;;;;;;;;6.67;5.67;;;;;;;;5071010;27;45565;-77
2021/12/31 13:19:15;;;;;;;;;3.33;3.33;;;;;;;;5068575;28;47928;-77
2021/12/31 13:21:41;;;;;;;;;3.33;3.33;;;;;;;;5058406;27;45500;-77
2021/12/31 13:24:07;;;;;;;;;4.67;4.33;;;;;;;;5070567;27;45390;-77
2021/12/31 13:26:33;;;;;;;;;3.67;3.67;;;;;;;;5060811;28;45565;-75
2021/12/31 13:29:03;;;;;;;;;4.00;3.00;;;;;;;;5070896;28;45492;-75
2021/12/31 13:31:38;;;;;;;;;1.33;1.33;;;;;;;;5081020;27;45434;-76
2021/12/31 13:34:17;;;;;;;;;2.33;2.33;;;;;;;;5075425;27;45330;-76
2021/12/31 13:36:44;;;;;;;;;4.33;3.00;;;;;;;;5062757;27;45528;-76
2021/12/31 13:39:12;;;;;;;;;2.00;2.00;;;;;;;;5072864;28;47444;-79
2021/12/31 13:41:44;;;;;;;;;3.00;3.00;;;;;;;;5070924;28;45553;-74
2021/12/31 13:44:11;;;;;;;;;3.00;3.00;;;;;;;;5076551;27;45502;-77
2021/12/31 13:46:38;;;;;;;;;6.67;4.00;;;;;;;;5065185;28;45673;-77
2021/12/31 13:49:05;;;;;;;;;7.00;4.00;;;;;;;;5077152;27;47116;-77
2021/12/31 13:51:30;;;;;;;;;4.00;4.00;;;;;;;;5072346;27;45437;-75
2021/12/31 13:53:55;;;;;;;;;4.33;4.33;;;;;;;;5074593;27;45404;-75
2021/12/31 13:56:34;;;;;;;;;4.33;4.33;;;;;;;;5078470;27;45398;-75
2021/12/31 13:59:14;;;;;;;;;4.67;4.67;;;;;;;;5076202;27;46266;-75
2021/12/31 14:01:39;;;;;;;;;7.00;6.33;;;;;;;;5074213;27;45469;-75
2021/12/31 14:04:14;;;;;;;;;2.67;2.00;;;;;;;;5073766;27;45734;-76
2021/12/31 14:06:41;;;;;;;;;4.00;4.00;;;;;;;;5068870;27;45258;-78
2021/12/31 14:09:06;;;;;;;;;4.00;3.00;;;;;;;;5074699;27;45930;-76
2021/12/31 14:11:32;;;;;;;;;4.67;2.67;;;;;;;;5075861;27;45293;-79
2021/12/31 14:13:57;;;;;;;;;4.00;3.00;;;;;;;;5076640;27;45335;-78
2021/12/31 14:16:22;;;;;;;;;4.67;3.67;;;;;;;;5078571;27;45403;-76
2021/12/31 14:18:47;;;;;;;;;3.00;3.00;;;;;;;;5076291;27;46132;-80
2021/12/31 14:21:12;;;;;;;;;6.00;5.00;;;;;;;;5057081;27;45300;-79
2021/12/31 14:23:38;;;;;;;;;3.00;3.00;;;;;;;;5046021;28;45503;-78
2021/12/31 14:26:03;;;;;;;;;2.00;2.00;;;;;;;;5064099;27;45378;-79
2021/12/31 14:28:28;;;;;;;;;4.00;4.00;;;;;;;;5075227;27;47541;-78
2021/12/31 14:30:54;;;;;;;;;5.00;5.00;;;;;;;;5078673;27;45397;-85
2021/12/31 14:33:19;;;;;;;;;4.00;4.00;;;;;;;;5080601;28;45215;-92
2021/12/31 14:35:48;;;;;;;;;2.00;2.00;;;;;;;;5051420;28;45167;-93
2021/12/31 14:38:20;;;;;;;;;4.00;4.00;;;;;;;;5084831;27;46421;-93
2021/12/31 14:40:48;;;;;;;;;5.00;4.00;;;;;;;;5080595;28;45178;-89
2021/12/31 14:43:17;;;;;;;;;4.67;4.67;;;;;;;;5085752;28;45056;-93